Honolulu, HI

12:00 AM HST on June 29, 2017 (GMT -1000)
Honolulu International | | Change Station

Elev 10 ft 21.32 °N, 157.92 °W | Updated 7 minutes ago

Mostly Cloudy
Mostly Cloudy
79 °F
Feels Like 79 °F
N
13
Wind Variable Wind from ENE

Today
High -- | Low -- °F
--% Chance of Precip.
Yesterday
High -- | Low -- °F
Precip. -- in
Pressure 30.10 in
Visibility 10.0 miles
Clouds Few 2600 ft
Scattered Clouds 4200 ft
Mostly Cloudy 5500 ft
Dew Point 64 °F
Humidity 60%
Rainfall 0.00 in
Snow Depth Not available.
5:52 AM 7:17 PM
Waxing Crescent, 34% visible
METAR PHNL 290953Z 07011KT 10SM FEW026 SCT042 BKN055 26/18 A3010 RMK AO2 SLP192 T02610178 403060250
Pressure 30.10 in
Visibility 10.0 miles
Clouds Few 2600 ft
Scattered Clouds 4200 ft
Mostly Cloudy 5500 ft
Dew Point 64 °F
Humidity 60%
Rainfall 0.00 in
Snow Depth Not available.
5:52 AM 7:17 PM
Waxing Crescent, 34% visible
METAR PHNL 290953Z 07011KT 10SM FEW026 SCT042 BKN055 26/18 A3010 RMK AO2 SLP192 T02610178 403060250

Get Severe Weather Alerts

Thanks for signing up!

Be on the lookout for a verification email in your inbox.

You'll start receiving the daily forecast at 6 AM.

×

10-Day Weather Forecast

Almanac

Astronomy

Jun. 29, 2017 Rise Set
Actual Time
Civil Twilight
Nautical Twilight
Astronomical Twilight
Moon
Length of Visible Light
Length of Day
Tomorrow will be .
, % of the Moon is Illuminated

Today's Extremes

State Highs State Lows

Community

WunderPhotos

Category 6

Welcome to Category 6. This is the collective home for Weather Underground's featured writeups by Dr. Jeff Masters (right), Bob Henson (left), Chris Burt, and other regular contributors.

Nearby

Air Quality

  Air Quality AQ Index Pollutant
Not available.

Snow Depth

Station Depth Elevation

Earthquake Activity

City Distance Mag. Time & Date
Minimum magnitude displayed is 2.5.

Coastal Water Temperatures

Place Temperature

Stations

Nearby Weather Stations

Station Location Temp. Windchill Dew Point Humidity Wind Precip. Elev Updated Type
                   

Watches & Warnings

There are currently no watches in effect.